sensor_id;sensor_type;location;lat;lon;timestamp;temperature;humidity
29007;DHT22;16104;48.642;9.008;2022-08-19T01:03:59;23.00;56.20
29007;DHT22;16104;48.642;9.008;2022-08-19T01:08:55;23.00;56.40
29007;DHT22;16104;48.642;9.008;2022-08-19T01:13:52;22.90;56.60
29007;DHT22;16104;48.642;9.008;2022-08-19T02:05:12;22.60;57.40
29007;DHT22;16104;48.642;9.008;2022-08-19T02:10:12;22.60;57.80
29007;DHT22;16104;48.642;9.008;2022-08-19T02:15:09;22.50;57.90
29007;DHT22;16104;48.642;9.008;2022-08-19T03:00:51;22.30;58.40
29007;DHT22;16104;48.642;9.008;2022-08-19T03:05:47;22.30;58.70
29007;DHT22;16104;48.642;9.008;2022-08-19T03:10:46;22.30;58.50
29007;DHT22;16104;48.642;9.008;2022-08-19T03:15:46;22.20;58.70
29007;DHT22;16104;48.642;9.008;2022-08-19T03:20:49;22.20;59.10
29007;DHT22;16104;48.642;9.008;2022-08-19T03:25:47;22.10;59.00
29007;DHT22;16104;48.642;9.008;2022-08-19T03:30:58;22.10;59.10
29007;DHT22;16104;48.642;9.008;2022-08-19T03:36:06;22.10;59.40
29007;DHT22;16104;48.642;9.008;2022-08-19T03:41:08;22.10;59.40
29007;DHT22;16104;48.642;9.008;2022-08-19T03:46:13;22.00;59.30
29007;DHT22;16104;48.642;9.008;2022-08-19T03:51:20;22.00;59.50
29007;DHT22;16104;48.642;9.008;2022-08-19T03:56:16;22.00;59.70
29007;DHT22;16104;48.642;9.008;2022-08-19T04:01:15;21.90;59.30
29007;DHT22;16104;48.642;9.008;2022-08-19T04:06:25;21.90;59.60
29007;DHT22;16104;48.642;9.008;2022-08-19T04:11:27;21.90;59.80
29007;DHT22;16104;48.642;9.008;2022-08-19T04:16:24;21.90;59.70
29007;DHT22;16104;48.642;9.008;2022-08-19T04:21:23;21.90;59.80
29007;DHT22;16104;48.642;9.008;2022-08-19T04:26:22;21.90;60.60
29007;DHT22;16104;48.642;9.008;2022-08-19T04:31:23;21.90;59.80
29007;DHT22;16104;48.642;9.008;2022-08-19T04:36:25;21.90;60.00
29007;DHT22;16104;48.642;9.008;2022-08-19T04:41:21;21.90;60.00
29007;DHT22;16104;48.642;9.008;2022-08-19T04:46:35;21.80;59.90
29007;DHT22;16104;48.642;9.008;2022-08-19T04:51:33;21.80;60.00
29007;DHT22;16104;48.642;9.008;2022-08-19T04:56:28;21.80;60.10
29007;DHT22;16104;48.642;9.008;2022-08-19T05:01:27;21.80;60.20
29007;DHT22;16104;48.642;9.008;2022-08-19T05:06:23;21.80;60.50
29007;DHT22;16104;48.642;9.008;2022-08-19T05:11:28;21.80;60.30
29007;DHT22;16104;48.642;9.008;2022-08-19T05:16:25;21.70;60.80
29007;DHT22;16104;48.642;9.008;2022-08-19T05:21:21;21.80;60.50
29007;DHT22;16104;48.642;9.008;2022-08-19T05:26:41;21.80;60.60
29007;DHT22;16104;48.642;9.008;2022-08-19T05:31:37;21.80;60.80
29007;DHT22;16104;48.642;9.008;2022-08-19T05:36:37;21.80;60.60
29007;DHT22;16104;48.642;9.008;2022-08-19T05:41:37;21.80;60.80
29007;DHT22;16104;48.642;9.008;2022-08-19T05:46:37;21.80;60.60
29007;DHT22;16104;48.642;9.008;2022-08-19T05:51:35;21.80;60.80
29007;DHT22;16104;48.642;9.008;2022-08-19T05:56:31;21.80;60.60
29007;DHT22;16104;48.642;9.008;2022-08-19T06:01:27;21.80;60.60
29007;DHT22;16104;48.642;9.008;2022-08-19T06:06:23;21.80;60.60
29007;DHT22;16104;48.642;9.008;2022-08-19T06:11:28;21.90;60.60
29007;DHT22;16104;48.642;9.008;2022-08-19T06:16:28;21.90;60.80
29007;DHT22;16104;48.642;9.008;2022-08-19T06:21:26;21.90;60.50
29007;DHT22;16104;48.642;9.008;2022-08-19T06:26:23;21.90;60.50
29007;DHT22;16104;48.642;9.008;2022-08-19T06:31:24;21.90;60.40
29007;DHT22;16104;48.642;9.008;2022-08-19T06:36:32;21.90;60.70
29007;DHT22;16104;48.642;9.008;2022-08-19T06:41:29;21.90;60.60
29007;DHT22;16104;48.642;9.008;2022-08-19T06:46:26;21.90;60.50
29007;DHT22;16104;48.642;9.008;2022-08-19T06:51:22;21.90;60.50
29007;DHT22;16104;48.642;9.008;2022-08-19T06:56:26;21.90;61.30
29007;DHT22;16104;48.642;9.008;2022-08-19T07:01:28;22.00;61.50
29007;DHT22;16104;48.642;9.008;2022-08-19T07:06:24;22.00;60.40
29007;DHT22;16104;48.642;9.008;2022-08-19T07:11:19;22.00;60.40
29007;DHT22;16104;48.642;9.008;2022-08-19T07:16:18;22.00;60.40
29007;DHT22;16104;48.642;9.008;2022-08-19T07:21:18;22.10;60.60
29007;DHT22;16104;48.642;9.008;2022-08-19T07:26:20;22.10;60.40
29007;DHT22;16104;48.642;9.008;2022-08-19T07:31:19;22.20;60.70
29007;DHT22;16104;48.642;9.008;2022-08-19T07:36:18;22.20;60.40
29007;DHT22;16104;48.642;9.008;2022-08-19T07:41:18;22.30;60.30
29007;DHT22;16104;48.642;9.008;2022-08-19T07:46:15;22.40;60.30
29007;DHT22;16104;48.642;9.008;2022-08-19T07:51:15;22.50;60.00
29007;DHT22;16104;48.642;9.008;2022-08-19T07:56:12;22.50;60.00
29007;DHT22;16104;48.642;9.008;2022-08-19T08:01:14;22.50;59.90
29007;DHT22;16104;48.642;9.008;2022-08-19T08:06:11;22.60;60.10
29007;DHT22;16104;48.642;9.008;2022-08-19T08:11:25;22.60;60.10
29007;DHT22;16104;48.642;9.008;2022-08-19T08:16:21;22.60;60.00
29007;DHT22;16104;48.642;9.008;2022-08-19T08:21:17;22.60;60.00
29007;DHT22;16104;48.642;9.008;2022-08-19T08:26:12;22.70;59.90
29007;DHT22;16104;48.642;9.008;2022-08-19T08:31:09;22.60;59.90
29007;DHT22;16104;48.642;9.008;2022-08-19T08:36:06;22.60;59.90
29007;DHT22;16104;48.642;9.008;2022-08-19T08:46:34;22.60;60.30
29007;DHT22;16104;48.642;9.008;2022-08-19T08:51:44;22.50;60.60
29007;DHT22;16104;48.642;9.008;2022-08-19T08:56:43;22.50;60.80
29007;DHT22;16104;48.642;9.008;2022-08-19T09:01:39;22.50;60.60
29007;DHT22;16104;48.642;9.008;2022-08-19T09:06:40;22.50;60.60
29007;DHT22;16104;48.642;9.008;2022-08-19T09:16:50;22.50;61.10
29007;DHT22;16104;48.642;9.008;2022-08-19T09:21:46;22.60;60.80
29007;DHT22;16104;48.642;9.008;2022-08-19T09:26:43;22.70;60.90
29007;DHT22;16104;48.642;9.008;2022-08-19T09:31:39;22.70;60.50
29007;DHT22;16104;48.642;9.008;2022-08-19T09:36:34;22.70;60.60
29007;DHT22;16104;48.642;9.008;2022-08-19T09:41:34;22.80;60.80
29007;DHT22;16104;48.642;9.008;2022-08-19T09:46:29;22.90;60.10
29007;DHT22;16104;48.642;9.008;2022-08-19T09:51:26;22.90;60.50
29007;DHT22;16104;48.642;9.008;2022-08-19T09:56:23;23.00;60.40
29007;DHT22;16104;48.642;9.008;2022-08-19T10:01:22;23.00;60.00
29007;DHT22;16104;48.642;9.008;2022-08-19T10:06:20;23.00;60.00
29007;DHT22;16104;48.642;9.008;2022-08-19T10:11:16;23.00;60.00
29007;DHT22;16104;48.642;9.008;2022-08-19T10:16:19;23.10;59.80
29007;DHT22;16104;48.642;9.008;2022-08-19T10:26:18;23.20;59.50
29007;DHT22;16104;48.642;9.008;2022-08-19T10:31:17;23.20;59.30
29007;DHT22;16104;48.642;9.008;2022-08-19T10:36:16;23.20;59.10
29007;DHT22;16104;48.642;9.008;2022-08-19T10:41:26;23.40;59.00
29007;DHT22;16104;48.642;9.008;2022-08-19T10:46:24;23.30;58.70
29007;DHT22;16104;48.642;9.008;2022-08-19T10:51:21;23.40;58.60
29007;DHT22;16104;48.642;9.008;2022-08-19T10:56:35;23.40;58.50
29007;DHT22;16104;48.642;9.008;2022-08-19T11:01:46;23.50;58.20
29007;DHT22;16104;48.642;9.008;2022-08-19T11:06:47;23.50;57.90
29007;DHT22;16104;48.642;9.008;2022-08-19T11:11:43;23.60;57.80
29007;DHT22;16104;48.642;9.008;2022-08-19T11:16:40;23.70;57.60
29007;DHT22;16104;48.642;9.008;2022-08-19T11:21:39;23.80;57.60
29007;DHT22;16104;48.642;9.008;2022-08-19T11:26:36;23.90;57.30
29007;DHT22;16104;48.642;9.008;2022-08-19T11:31:34;24.00;57.10
29007;DHT22;16104;48.642;9.008;2022-08-19T11:36:37;24.10;57.00
29007;DHT22;16104;48.642;9.008;2022-08-19T11:41:34;24.10;56.50
29007;DHT22;16104;48.642;9.008;2022-08-19T11:46:30;24.20;56.60
29007;DHT22;16104;48.642;9.008;2022-08-19T11:51:27;24.30;56.10
29007;DHT22;16104;48.642;9.008;2022-08-19T11:56:24;24.40;56.00
29007;DHT22;16104;48.642;9.008;2022-08-19T12:01:22;24.40;55.80
29007;DHT22;16104;48.642;9.008;2022-08-19T12:06:21;24.40;55.50
29007;DHT22;16104;48.642;9.008;2022-08-19T12:11:20;24.40;55.40
29007;DHT22;16104;48.642;9.008;2022-08-19T12:16:19;24.50;55.40
29007;DHT22;16104;48.642;9.008;2022-08-19T12:21:18;24.50;55.20
29007;DHT22;16104;48.642;9.008;2022-08-19T12:26:17;24.50;55.30
29007;DHT22;16104;48.642;9.008;2022-08-19T12:31:12;24.60;55.30
29007;DHT22;16104;48.642;9.008;2022-08-19T12:36:12;24.70;55.20
29007;DHT22;16104;48.642;9.008;2022-08-19T12:41:11;24.70;55.60
29007;DHT22;16104;48.642;9.008;2022-08-19T12:46:07;24.70;54.40
29007;DHT22;16104;48.642;9.008;2022-08-19T12:51:09;24.90;54.50
29007;DHT22;16104;48.642;9.008;2022-08-19T12:56:06;25.00;53.70
29007;DHT22;16104;48.642;9.008;2022-08-19T13:01:13;25.10;53.50
29007;DHT22;16104;48.642;9.008;2022-08-19T13:06:09;25.10;52.00
29007;DHT22;16104;48.642;9.008;2022-08-19T13:11:13;25.20;51.10
29007;DHT22;16104;48.642;9.008;2022-08-19T13:16:11;25.30;50.70
29007;DHT22;16104;48.642;9.008;2022-08-19T13:33:13;25.60;50.00
29007;DHT22;16104;48.642;9.008;2022-08-19T13:44:04;25.80;49.10
29007;DHT22;16104;48.642;9.008;2022-08-19T13:49:01;25.90;49.70
29007;DHT22;16104;48.642;9.008;2022-08-19T13:53:57;26.00;49.80
29007;DHT22;16104;48.642;9.008;2022-08-19T13:58:52;26.00;49.80
29007;DHT22;16104;48.642;9.008;2022-08-19T14:03:48;26.10;49.80
29007;DHT22;16104;48.642;9.008;2022-08-19T14:08:45;26.10;50.10
29007;DHT22;16104;48.642;9.008;2022-08-19T14:13:41;26.20;49.70
29007;DHT22;16104;48.642;9.008;2022-08-19T14:18:37;26.30;49.60
29007;DHT22;16104;48.642;9.008;2022-08-19T14:23:34;26.30;49.40
29007;DHT22;16104;48.642;9.008;2022-08-19T14:28:31;26.50;49.20
29007;DHT22;16104;48.642;9.008;2022-08-19T14:33:26;26.60;49.30
29007;DHT22;16104;48.642;9.008;2022-08-19T14:38:22;26.70;48.60
29007;DHT22;16104;48.642;9.008;2022-08-19T14:43:18;26.80;48.20
29007;DHT22;16104;48.642;9.008;2022-08-19T14:48:13;26.80;48.30
29007;DHT22;16104;48.642;9.008;2022-08-19T14:53:09;26.80;47.50
29007;DHT22;16104;48.642;9.008;2022-08-19T14:58:04;26.80;47.50
29007;DHT22;16104;48.642;9.008;2022-08-19T15:03:00;26.70;47.10
29007;DHT22;16104;48.642;9.008;2022-08-19T15:07:56;26.70;47.00
29007;DHT22;16104;48.642;9.008;2022-08-19T15:12:51;26.70;47.20
29007;DHT22;16104;48.642;9.008;2022-08-19T15:17:48;26.70;47.20
29007;DHT22;16104;48.642;9.008;2022-08-19T15:22:44;26.70;47.00
29007;DHT22;16104;48.642;9.008;2022-08-19T15:27:40;26.80;46.80
29007;DHT22;16104;48.642;9.008;2022-08-19T15:32:37;26.80;46.90
29007;DHT22;16104;48.642;9.008;2022-08-19T15:37:33;26.80;46.70
29007;DHT22;16104;48.642;9.008;2022-08-19T15:42:28;26.90;46.80
29007;DHT22;16104;48.642;9.008;2022-08-19T15:47:24;27.00;46.90
29007;DHT22;16104;48.642;9.008;2022-08-19T15:52:20;27.10;47.00
29007;DHT22;16104;48.642;9.008;2022-08-19T15:57:15;27.20;47.00
29007;DHT22;16104;48.642;9.008;2022-08-19T16:02:18;27.40;46.80
29007;DHT22;16104;48.642;9.008;2022-08-19T16:07:33;27.60;46.60
29007;DHT22;16104;48.642;9.008;2022-08-19T16:12:28;27.70;46.00
29007;DHT22;16104;48.642;9.008;2022-08-19T16:17:24;27.80;46.00
29007;DHT22;16104;48.642;9.008;2022-08-19T16:22:20;27.80;45.70
29007;DHT22;16104;48.642;9.008;2022-08-19T16:27:16;27.90;45.60
29007;DHT22;16104;48.642;9.008;2022-08-19T16:32:12;27.90;45.30
29007;DHT22;16104;48.642;9.008;2022-08-19T16:37:09;27.90;45.10
29007;DHT22;16104;48.642;9.008;2022-08-19T16:42:06;27.90;45.10
29007;DHT22;16104;48.642;9.008;2022-08-19T16:47:02;27.90;45.90
29007;DHT22;16104;48.642;9.008;2022-08-19T16:51:57;27.80;45.10
29007;DHT22;16104;48.642;9.008;2022-08-19T16:56:53;27.80;45.20
29007;DHT22;16104;48.642;9.008;2022-08-19T17:01:50;27.70;45.00
29007;DHT22;16104;48.642;9.008;2022-08-19T17:06:46;27.60;44.90
29007;DHT22;16104;48.642;9.008;2022-08-19T17:11:42;27.60;44.80
29007;DHT22;16104;48.642;9.008;2022-08-19T17:16:37;27.50;44.90
29007;DHT22;16104;48.642;9.008;2022-08-19T17:21:35;27.40;44.90
29007;DHT22;16104;48.642;9.008;2022-08-19T17:26:31;27.30;44.50
29007;DHT22;16104;48.642;9.008;2022-08-19T17:31:28;27.20;44.50
29007;DHT22;16104;48.642;9.008;2022-08-19T17:36:27;27.20;44.20
29007;DHT22;16104;48.642;9.008;2022-08-19T17:41:25;27.10;44.20
29007;DHT22;16104;48.642;9.008;2022-08-19T17:46:21;27.10;44.40
29007;DHT22;16104;48.642;9.008;2022-08-19T17:51:23;27.00;44.40
29007;DHT22;16104;48.642;9.008;2022-08-19T17:56:20;27.00;44.30
29007;DHT22;16104;48.642;9.008;2022-08-19T18:01:16;27.00;44.40
29007;DHT22;16104;48.642;9.008;2022-08-19T18:06:13;26.90;44.60
29007;DHT22;16104;48.642;9.008;2022-08-19T18:11:10;26.90;44.40
29007;DHT22;16104;48.642;9.008;2022-08-19T18:16:06;26.80;44.60
29007;DHT22;16104;48.642;9.008;2022-08-19T18:21:07;26.70;44.80
29007;DHT22;16104;48.642;9.008;2022-08-19T18:26:03;26.70;44.70
29007;DHT22;16104;48.642;9.008;2022-08-19T18:30:59;26.60;44.90
29007;DHT22;16104;48.642;9.008;2022-08-19T18:35:56;26.60;45.80
29007;DHT22;16104;48.642;9.008;2022-08-19T18:40:58;26.50;46.60
29007;DHT22;16104;48.642;9.008;2022-08-19T18:46:12;26.40;45.30
29007;DHT22;16104;48.642;9.008;2022-08-19T18:51:27;26.30;45.60
29007;DHT22;16104;48.642;9.008;2022-08-19T18:56:28;26.20;45.70
29007;DHT22;16104;48.642;9.008;2022-08-19T19:01:35;26.10;45.70
29007;DHT22;16104;48.642;9.008;2022-08-19T19:06:33;26.00;45.90
29007;DHT22;16104;48.642;9.008;2022-08-19T19:11:35;25.90;46.20
29007;DHT22;16104;48.642;9.008;2022-08-19T19:16:31;25.70;46.20
29007;DHT22;16104;48.642;9.008;2022-08-19T19:21:27;25.60;46.30
29007;DHT22;16104;48.642;9.008;2022-08-19T19:26:22;25.50;46.70
29007;DHT22;16104;48.642;9.008;2022-08-19T19:31:21;25.30;46.90
29007;DHT22;16104;48.642;9.008;2022-08-19T19:36:21;25.20;47.20
29007;DHT22;16104;48.642;9.008;2022-08-19T19:41:20;25.00;47.20
29007;DHT22;16104;48.642;9.008;2022-08-19T19:46:18;24.90;47.40
29007;DHT22;16104;48.642;9.008;2022-08-19T19:51:14;24.80;47.50
29007;DHT22;16104;48.642;9.008;2022-08-19T19:56:09;24.70;47.60
29007;DHT22;16104;48.642;9.008;2022-08-19T20:01:05;24.70;47.80
29007;DHT22;16104;48.642;9.008;2022-08-19T20:06:02;24.60;48.00
29007;DHT22;16104;48.642;9.008;2022-08-19T20:11:00;24.50;48.10
29007;DHT22;16104;48.642;9.008;2022-08-19T20:15:56;24.40;48.40
29007;DHT22;16104;48.642;9.008;2022-08-19T20:20:52;24.50;48.70
29007;DHT22;16104;48.642;9.008;2022-08-19T20:25:49;24.40;48.70
29007;DHT22;16104;48.642;9.008;2022-08-19T20:30:46;24.30;48.60
29007;DHT22;16104;48.642;9.008;2022-08-19T20:35:43;24.30;48.40
29007;DHT22;16104;48.642;9.008;2022-08-19T20:40:39;24.20;48.20
29007;DHT22;16104;48.642;9.008;2022-08-19T20:45:35;24.20;48.00
29007;DHT22;16104;48.642;9.008;2022-08-19T20:50:32;24.20;47.90
29007;DHT22;16104;48.642;9.008;2022-08-19T20:55:29;24.10;47.70
29007;DHT22;16104;48.642;9.008;2022-08-19T21:00:25;24.20;48.00
29007;DHT22;16104;48.642;9.008;2022-08-19T21:05:20;24.10;48.10
29007;DHT22;16104;48.642;9.008;2022-08-19T21:10:16;24.10;48.20
29007;DHT22;16104;48.642;9.008;2022-08-19T21:15:12;24.10;48.20
29007;DHT22;16104;48.642;9.008;2022-08-19T21:20:08;24.10;48.50
29007;DHT22;16104;48.642;9.008;2022-08-19T21:25:04;24.00;48.90
29007;DHT22;16104;48.642;9.008;2022-08-19T21:30:00;24.10;49.10
29007;DHT22;16104;48.642;9.008;2022-08-19T21:34:56;24.00;49.40
29007;DHT22;16104;48.642;9.008;2022-08-19T21:39:53;24.00;49.70
29007;DHT22;16104;48.642;9.008;2022-08-19T21:44:48;23.90;50.00
29007;DHT22;16104;48.642;9.008;2022-08-19T21:49:44;23.90;50.40
29007;DHT22;16104;48.642;9.008;2022-08-19T21:54:40;23.90;50.80
29007;DHT22;16104;48.642;9.008;2022-08-19T21:59:37;23.90;51.10
29007;DHT22;16104;48.642;9.008;2022-08-19T22:04:33;23.80;51.30
29007;DHT22;16104;48.642;9.008;2022-08-19T22:09:29;23.80;51.60
29007;DHT22;16104;48.642;9.008;2022-08-19T22:14:24;23.80;51.90
29007;DHT22;16104;48.642;9.008;2022-08-19T22:19:20;23.80;52.00
29007;DHT22;16104;48.642;9.008;2022-08-19T22:24:16;23.70;52.10
29007;DHT22;16104;48.642;9.008;2022-08-19T22:29:11;23.70;52.20
29007;DHT22;16104;48.642;9.008;2022-08-19T22:34:07;23.70;52.40
29007;DHT22;16104;48.642;9.008;2022-08-19T22:39:04;23.70;52.60
29007;DHT22;16104;48.642;9.008;2022-08-19T22:43:59;23.60;52.60
29007;DHT22;16104;48.642;9.008;2022-08-19T22:48:55;23.60;52.90
29007;DHT22;16104;48.642;9.008;2022-08-19T22:53:50;23.60;53.10
29007;DHT22;16104;48.642;9.008;2022-08-19T22:58:46;23.50;53.10
29007;DHT22;16104;48.642;9.008;2022-08-19T23:03:42;23.50;53.20
29007;DHT22;16104;48.642;9.008;2022-08-19T23:08:39;23.50;53.20
29007;DHT22;16104;48.642;9.008;2022-08-19T23:13:34;23.40;53.30
29007;DHT22;16104;48.642;9.008;2022-08-19T23:18:31;23.40;53.50
29007;DHT22;16104;48.642;9.008;2022-08-19T23:23:28;23.30;53.60
29007;DHT22;16104;48.642;9.008;2022-08-19T23:28:23;23.20;53.70
29007;DHT22;16104;48.642;9.008;2022-08-19T23:33:41;23.20;53.80
29007;DHT22;16104;48.642;9.008;2022-08-19T23:38:38;23.10;53.90
29007;DHT22;16104;48.642;9.008;2022-08-19T23:43:34;23.00;53.90
29007;DHT22;16104;48.642;9.008;2022-08-19T23:48:31;23.00;54.30
29007;DHT22;16104;48.642;9.008;2022-08-19T23:53:27;22.90;54.50
29007;DHT22;16104;48.642;9.008;2022-08-19T23:58:23;22.80;54.50
